Macuru Arrow — C6YH3 — position and weather

sailwx.info

Track history (hours):
 
Tides and Currents Weather Stations Pressure Air Temp Water Temp Dewpoint Dewpoint Depression Visibility Wind Speed Wind Dir Waves Ship Positions

Macuru Arrow

Last reported at 2017-Oct-19 07:00 UTC. Time now 2017-Oct-19 07:31 UTC.
Position S 23°58' W 046°18'.

Length 225 m; draft 11.1 m.

Type: Cargo ship. MMSI: 311032500.

Date/timePositionNaut miles runAvg speedWind from/ knotsBaromVisibWave heightAir tempDewpointWater temp
2017-Oct-19 07:00S 23°58' W 046°18'0 0.0
2017-Oct-19 06:30S 23°58' W 046°18'0 0.0
2017-Oct-19 06:00S 23°58' W 046°18'0 0.0
2017-Oct-19 05:30S 23°58' W 046°18'0 0.0
2017-Oct-19 05:00S 23°58' W 046°18'0 0.0
2017-Oct-19 04:30S 23°58' W 046°18'0 0.0
2017-Oct-19 04:00S 23°58' W 046°18'0 0.0
2017-Oct-19 03:30S 23°58' W 046°18'0 0.0
2017-Oct-19 02:57S 23°58' W 046°18'0 0.0
2017-Oct-19 02:30S 23°58' W 046°18'0 0.0
2017-Oct-19 02:00S 23°58' W 046°18'0 0.0
2017-Oct-19 01:30S 23°58' W 046°18'0 0.0
2017-Oct-19 01:00S 23°58' W 046°18'0 0.0
2017-Oct-19 00:24S 23°58' W 046°18'0 0.0
2017-Oct-19 00:00S 23°58' W 046°18'0 0.0
2017-Oct-18 23:30S 23°58' W 046°18'0 0.0
2017-Oct-18 22:42S 23°58' W 046°18'0 0.0
2017-Oct-18 22:30S 23°58' W 046°18'0 0.0
2017-Oct-18 21:50S 23°58' W 046°18'0 0.0
2017-Oct-18 21:18S 23°58' W 046°18'0 0.0
2017-Oct-18 20:48S 23°58' W 046°18'0 0.0
2017-Oct-18 20:30S 23°58' W 046°18'0 0.0
2017-Oct-18 19:54S 23°58' W 046°18'0 0.0
2017-Oct-18 19:21S 23°58' W 046°18'0 0.0
2017-Oct-18 18:57S 23°58' W 046°18'0 0.0
2017-Oct-18 18:24S 23°58' W 046°18'0 0.0
2017-Oct-18 17:54S 23°58' W 046°18'0 0.0
2017-Oct-18 16:51S 23°58' W 046°18'0 0.0
2017-Oct-18 16:24S 23°58' W 046°18'0 0.0
2017-Oct-18 15:48S 23°58' W 046°18'0 0.0
2017-Oct-18 15:26S 23°58' W 046°18'0 0.0
2017-Oct-18 15:00S 23°58' W 046°18'0 0.0
2017-Oct-18 14:00S 23°58' W 046°18'0 0.0
2017-Oct-18 13:27S 23°58' W 046°18'0 0.0
2017-Oct-18 13:00S 23°58' W 046°18'0 0.0
2017-Oct-18 12:29S 23°58' W 046°18'0 0.0
2017-Oct-18 11:57S 23°58' W 046°18'0 0.0
2017-Oct-18 11:30S 23°58' W 046°18'0 0.0
2017-Oct-18 10:54S 23°58' W 046°18'0 0.1
2017-Oct-18 10:30S 23°58' W 046°18'1 1.9
2017-Oct-18 10:00S 23°59' W 046°17'3 5.9
2017-Oct-18 09:30S 24°00' W 046°20'5 9.5
2017-Oct-18 09:00S 24°05' W 046°22'4 8.5
2017-Oct-18 08:30S 24°09' W 046°22'3 7.0
2017-Oct-18 08:00S 24°11' W 046°20'3 6.1
2017-Oct-18 07:30S 24°11' W 046°16'0 0.4
2017-Oct-18 06:57S 24°12' W 046°17'0 0.0
2017-Oct-18 06:27S 24°11' W 046°17'0 0.0
2017-Oct-18 06:00S 24°12' W 046°17'0 0.0
2017-Oct-18 05:27S 24°11' W 046°17'0 0.0
2017-Oct-18 05:00S 24°11' W 046°17'0 0.0
2017-Oct-18 04:30S 24°11' W 046°17'0 0.0
2017-Oct-18 04:00S 24°11' W 046°17'0 0.0
2017-Oct-18 03:27S 24°11' W 046°17'0 0.0
2017-Oct-18 03:00S 24°11' W 046°17'0 0.0
2017-Oct-18 02:27S 24°11' W 046°17'0 0.0
2017-Oct-18 02:00S 24°11' W 046°17'0 0.0
2017-Oct-18 01:30S 24°11' W 046°17'0 0.0
2017-Oct-18 01:00S 24°11' W 046°17'0 0.0
2017-Oct-18 00:27S 24°11' W 046°17'0 0.0
2017-Oct-18 00:00S 24°11' W 046°17'0 0.0
2017-Oct-17 23:27S 24°11' W 046°17'0 0.0
2017-Oct-17 23:00S 24°11' W 046°17'0 0.0
2017-Oct-17 22:30S 24°11' W 046°17'0 0.0
2017-Oct-17 22:00S 24°11' W 046°17'0 0.0
2017-Oct-17 21:21S 24°11' W 046°17'0 0.0
2017-Oct-17 21:00S 24°11' W 046°17'0 0.0
2017-Oct-17 20:27S 24°11' W 046°17'0 0.0
2017-Oct-17 19:57S 24°11' W 046°17'0 0.0
2017-Oct-17 19:30S 24°11' W 046°17'0 0.0
2017-Oct-17 18:57S 24°11' W 046°17'0 0.0
2017-Oct-17 18:27S 24°11' W 046°17'0 0.0
2017-Oct-17 18:00S 24°11' W 046°17'0 0.0
2017-Oct-17 17:30S 24°11' W 046°17'0 0.0
2017-Oct-17 17:00S 24°11' W 046°17'0 0.0
2017-Oct-17 16:30S 24°11' W 046°17'0 0.0
2017-Oct-17 16:00S 24°11' W 046°17'0 0.0
2017-Oct-17 15:30S 24°11' W 046°17'0 0.0
2017-Oct-17 15:00S 24°11' W 046°17'0 0.0
2017-Oct-17 14:30S 24°11' W 046°17'0 0.0
2017-Oct-17 14:00S 24°11' W 046°17'0 0.0
2017-Oct-17 13:30S 24°11' W 046°17'0 0.0
2017-Oct-17 13:00S 24°11' W 046°17'0 0.0
2017-Oct-17 12:27S 24°11' W 046°17'0 0.0
2017-Oct-17 12:00S 24°11' W 046°17'0 0.0
2017-Oct-17 11:27S 24°11' W 046°17'0 0.0
2017-Oct-17 10:57S 24°11' W 046°17'0 0.0
2017-Oct-17 10:30S 24°11' W 046°17'0 0.0
2017-Oct-17 09:57S 24°11' W 046°17'0 0.0
2017-Oct-17 09:30S 24°11' W 046°17'0 0.0
2017-Oct-17 09:00S 24°11' W 046°17'0 0.0
2017-Oct-17 08:27S 24°11' W 046°17'0 0.0
2017-Oct-17 07:57S 24°11' W 046°17'0 0.0
2017-Oct-17 07:21S 24°11' W 046°17'0 0.0
2017-Oct-17 06:57S 24°11' W 046°17'0 0.0
2017-Oct-17 06:27S 24°11' W 046°17'0 0.0
2017-Oct-17 06:00S 24°11' W 046°17'0 0.0
2017-Oct-17 05:24S 24°11' W 046°17'0 0.0
2017-Oct-17 05:00S 24°11' W 046°17'0 0.0
2017-Oct-17 04:27S 24°11' W 046°17'0 0.0
2017-Oct-17 03:57S 24°11' W 046°17'1 1.1
2017-Oct-17 03:30S 24°12' W 046°17'3 5.8
2017-Oct-17 03:01S 24°12' W 046°20'3 7.0
2017-Oct-17 02:30S 24°13' W 046°24'713.0
2017-Oct-17 02:00S 24°20' W 046°25'714.2
2017-Oct-17 01:30S 24°27' W 046°26'713.7
2017-Oct-17 01:00S 24°33' W 046°29'714.4
2017-Oct-17 00:30S 24°38' W 046°35'714.5
2017-Oct-17 00:00S 24°43' W 046°41'  
2017-Oct-10 19:07S 25°38' W 048°09'0 0.0
2017-Oct-10 18:58S 25°38' W 048°09'0 0.0
2017-Oct-10 16:34S 25°38' W 048°09'0 0.1
2017-Oct-10 16:25S 25°38' W 048°09'0 0.0
2017-Oct-10 14:34S 25°38' W 048°09'0 0.0
2017-Oct-10 12:25S 25°38' W 048°09'0 0.0
2017-Oct-10 11:52S 25°38' W 048°09'0 0.0
2017-Oct-10 10:01S 25°38' W 048°09'0 0.1
2017-Oct-10 09:58S 25°38' W 048°09'0 0.0
2017-Oct-10 07:04S 25°38' W 048°09'0 0.1
2017-Oct-10 06:58S 25°38' W 048°09'0 0.0
2017-Oct-10 06:28S 25°38' W 048°09'0 0.0
2017-Oct-10 05:58S 25°38' W 048°09'0 0.0
2017-Oct-10 05:28S 25°38' W 048°09'0 0.0
2017-Oct-10 04:58S 25°38' W 048°09'0 0.0
2017-Oct-10 04:19S 25°38' W 048°09'  
Track history (hours):
 
Tides and Currents Weather Stations Pressure Air Temp Water Temp Dewpoint Dewpoint Depression Visibility Wind Speed Wind Dir Waves Ship Positions

Macuru Arrow

Last reported at 2017-Oct-19 07:00 UTC. Time now 2017-Oct-19 07:31 UTC.
Position S 23°58' W 046°18'.

Length 225 m; draft 11.1 m.

Type: Cargo ship. MMSI: 311032500.

Date/timePositionNaut miles runAvg speedWind from/ knotsBaromVisibWave heightAir tempDewpointWater temp
2017-Oct-19 07:00S 23°58' W 046°18'0 0.0
2017-Oct-19 06:30S 23°58' W 046°18'0 0.0
2017-Oct-19 06:00S 23°58' W 046°18'0 0.0
2017-Oct-19 05:30S 23°58' W 046°18'0 0.0
2017-Oct-19 05:00S 23°58' W 046°18'0 0.0
2017-Oct-19 04:30S 23°58' W 046°18'0 0.0
2017-Oct-19 04:00S 23°58' W 046°18'0 0.0
2017-Oct-19 03:30S 23°58' W 046°18'0 0.0
2017-Oct-19 02:57S 23°58' W 046°18'0 0.0
2017-Oct-19 02:30S 23°58' W 046°18'0 0.0
2017-Oct-19 02:00S 23°58' W 046°18'0 0.0
2017-Oct-19 01:30S 23°58' W 046°18'0 0.0
2017-Oct-19 01:00S 23°58' W 046°18'0 0.0
2017-Oct-19 00:24S 23°58' W 046°18'0 0.0
2017-Oct-19 00:00S 23°58' W 046°18'0 0.0
2017-Oct-18 23:30S 23°58' W 046°18'0 0.0
2017-Oct-18 22:42S 23°58' W 046°18'0 0.0
2017-Oct-18 22:30S 23°58' W 046°18'0 0.0
2017-Oct-18 21:50S 23°58' W 046°18'0 0.0
2017-Oct-18 21:18S 23°58' W 046°18'0 0.0
2017-Oct-18 20:48S 23°58' W 046°18'0 0.0
2017-Oct-18 20:30S 23°58' W 046°18'0 0.0
2017-Oct-18 19:54S 23°58' W 046°18'0 0.0
2017-Oct-18 19:21S 23°58' W 046°18'0 0.0
2017-Oct-18 18:57S 23°58' W 046°18'0 0.0
2017-Oct-18 18:24S 23°58' W 046°18'0 0.0
2017-Oct-18 17:54S 23°58' W 046°18'0 0.0
2017-Oct-18 16:51S 23°58' W 046°18'0 0.0
2017-Oct-18 16:24S 23°58' W 046°18'0 0.0
2017-Oct-18 15:48S 23°58' W 046°18'0 0.0
2017-Oct-18 15:26S 23°58' W 046°18'0 0.0
2017-Oct-18 15:00S 23°58' W 046°18'0 0.0
2017-Oct-18 14:00S 23°58' W 046°18'0 0.0
2017-Oct-18 13:27S 23°58' W 046°18'0 0.0
2017-Oct-18 13:00S 23°58' W 046°18'0 0.0
2017-Oct-18 12:29S 23°58' W 046°18'0 0.0
2017-Oct-18 11:57S 23°58' W 046°18'0 0.0
2017-Oct-18 11:30S 23°58' W 046°18'0 0.0
2017-Oct-18 10:54S 23°58' W 046°18'0 0.1
2017-Oct-18 10:30S 23°58' W 046°18'1 1.9
2017-Oct-18 10:00S 23°59' W 046°17'3 5.9
2017-Oct-18 09:30S 24°00' W 046°20'5 9.5
2017-Oct-18 09:00S 24°05' W 046°22'4 8.5
2017-Oct-18 08:30S 24°09' W 046°22'3 7.0
2017-Oct-18 08:00S 24°11' W 046°20'3 6.1
2017-Oct-18 07:30S 24°11' W 046°16'0 0.4
2017-Oct-18 06:57S 24°12' W 046°17'0 0.0
2017-Oct-18 06:27S 24°11' W 046°17'0 0.0
2017-Oct-18 06:00S 24°12' W 046°17'0 0.0
2017-Oct-18 05:27S 24°11' W 046°17'0 0.0
2017-Oct-18 05:00S 24°11' W 046°17'0 0.0
2017-Oct-18 04:30S 24°11' W 046°17'0 0.0
2017-Oct-18 04:00S 24°11' W 046°17'0 0.0
2017-Oct-18 03:27S 24°11' W 046°17'0 0.0
2017-Oct-18 03:00S 24°11' W 046°17'0 0.0
2017-Oct-18 02:27S 24°11' W 046°17'0 0.0
2017-Oct-18 02:00S 24°11' W 046°17'0 0.0
2017-Oct-18 01:30S 24°11' W 046°17'0 0.0
2017-Oct-18 01:00S 24°11' W 046°17'0 0.0
2017-Oct-18 00:27S 24°11' W 046°17'0 0.0
2017-Oct-18 00:00S 24°11' W 046°17'0 0.0
2017-Oct-17 23:27S 24°11' W 046°17'0 0.0
2017-Oct-17 23:00S 24°11' W 046°17'0 0.0
2017-Oct-17 22:30S 24°11' W 046°17'0 0.0
2017-Oct-17 22:00S 24°11' W 046°17'0 0.0
2017-Oct-17 21:21S 24°11' W 046°17'0 0.0
2017-Oct-17 21:00S 24°11' W 046°17'0 0.0
2017-Oct-17 20:27S 24°11' W 046°17'0 0.0
2017-Oct-17 19:57S 24°11' W 046°17'0 0.0
2017-Oct-17 19:30S 24°11' W 046°17'0 0.0
2017-Oct-17 18:57S 24°11' W 046°17'0 0.0
2017-Oct-17 18:27S 24°11' W 046°17'0 0.0
2017-Oct-17 18:00S 24°11' W 046°17'0 0.0
2017-Oct-17 17:30S 24°11' W 046°17'0 0.0
2017-Oct-17 17:00S 24°11' W 046°17'0 0.0
2017-Oct-17 16:30S 24°11' W 046°17'0 0.0
2017-Oct-17 16:00S 24°11' W 046°17'0 0.0
2017-Oct-17 15:30S 24°11' W 046°17'0 0.0
2017-Oct-17 15:00S 24°11' W 046°17'0 0.0
2017-Oct-17 14:30S 24°11' W 046°17'0 0.0
2017-Oct-17 14:00S 24°11' W 046°17'0 0.0
2017-Oct-17 13:30S 24°11' W 046°17'0 0.0
2017-Oct-17 13:00S 24°11' W 046°17'0 0.0
2017-Oct-17 12:27S 24°11' W 046°17'0 0.0
2017-Oct-17 12:00S 24°11' W 046°17'0 0.0
2017-Oct-17 11:27S 24°11' W 046°17'0 0.0
2017-Oct-17 10:57S 24°11' W 046°17'0 0.0
2017-Oct-17 10:30S 24°11' W 046°17'0 0.0
2017-Oct-17 09:57S 24°11' W 046°17'0 0.0
2017-Oct-17 09:30S 24°11' W 046°17'0 0.0
2017-Oct-17 09:00S 24°11' W 046°17'0 0.0
2017-Oct-17 08:27S 24°11' W 046°17'0 0.0
2017-Oct-17 07:57S 24°11' W 046°17'0 0.0
2017-Oct-17 07:21S 24°11' W 046°17'0 0.0
2017-Oct-17 06:57S 24°11' W 046°17'0 0.0
2017-Oct-17 06:27S 24°11' W 046°17'0 0.0
2017-Oct-17 06:00S 24°11' W 046°17'0 0.0
2017-Oct-17 05:24S 24°11' W 046°17'0 0.0
2017-Oct-17 05:00S 24°11' W 046°17'0 0.0
2017-Oct-17 04:27S 24°11' W 046°17'0 0.0
2017-Oct-17 03:57S 24°11' W 046°17'1 1.1
2017-Oct-17 03:30S 24°12' W 046°17'3 5.8
2017-Oct-17 03:01S 24°12' W 046°20'3 7.0
2017-Oct-17 02:30S 24°13' W 046°24'713.0
2017-Oct-17 02:00S 24°20' W 046°25'714.2
2017-Oct-17 01:30S 24°27' W 046°26'713.7
2017-Oct-17 01:00S 24°33' W 046°29'714.4
2017-Oct-17 00:30S 24°38' W 046°35'714.5
2017-Oct-17 00:00S 24°43' W 046°41'  
2017-Oct-10 19:07S 25°38' W 048°09'0 0.0
2017-Oct-10 18:58S 25°38' W 048°09'0 0.0
2017-Oct-10 16:34S 25°38' W 048°09'0 0.1
2017-Oct-10 16:25S 25°38' W 048°09'0 0.0
2017-Oct-10 14:34S 25°38' W 048°09'0 0.0
2017-Oct-10 12:25S 25°38' W 048°09'0 0.0
2017-Oct-10 11:52S 25°38' W 048°09'0 0.0
2017-Oct-10 10:01S 25°38' W 048°09'0 0.1
2017-Oct-10 09:58S 25°38' W 048°09'0 0.0
2017-Oct-10 07:04S 25°38' W 048°09'0 0.1
2017-Oct-10 06:58S 25°38' W 048°09'0 0.0
2017-Oct-10 06:28S 25°38' W 048°09'0 0.0
2017-Oct-10 05:58S 25°38' W 048°09'0 0.0
2017-Oct-10 05:28S 25°38' W 048°09'0 0.0
2017-Oct-10 04:58S 25°38' W 048°09'0 0.0
2017-Oct-10 04:19S 25°38' W 048°09'  

Dump ship's entire track history